首页
METAR-TAF:

METAR-TAF

机场 :

格拉斯哥普雷斯特威克机场

格拉斯哥普雷斯蒂克国际机场, 苏格兰

纬度: 55-30N, 经度: 004-35W, 海拔: 20米

当前天气观测

该预报发布于33分钟前的16:20 UTC
风速17节,风向西
温度 7°C
湿度 70%
气压 1012 hPa
能见度10公里或以上
少量云层高于2000英尺
散云层高于4500英尺

METAR: EGPK 021620Z 28017KT 9999 FEW020 SCT045 07/02 Q1012

时间: 17:53 (16:53 UTC)

预报

该预报发布于5小时和54分钟前的10:59 UTC
预报有效从02日的 12点(UTC)到 03日的 12点(UTC)
风速17节,风向西转西北
能见度10公里或以上
散云层高于3000英尺
几率 40% :
短暂存在
从 02日的 12点(UTC)到 02日的 18点(UTC)
风速22节,风向西北,有时为32节阵风
几率 30% :
短暂存在
从 02日的 12点(UTC)到 03日的 06点(UTC)
能見度: 4000
多云层高于1000英尺
阵雨
成为
从 02日的 18点(UTC)到 02日的 21点(UTC)
风速7节,风向西

TAF: EGPK 021059Z 0212/0312 29017KT 9999 SCT030 PROB40 TEMPO 0212/0218 31022G32KT PROB30 TEMPO 0212/0306 4000 SHRA BKN010 BECMG 0218/0221 27007KT

超过4000个机场的气象观测和天气预报(METAR&TAF报告)。

可查询的气象台以黄色和红色小点在地图上表示。

将鼠标移到小点上方,可查看气象台名称。

然后点击查看天气观测和预报。

如需切换地图:点击带黑十字的绿色按钮放大地图;点击带横线的绿色按钮缩小地图;或者点击绿色箭头查看邻近地区的地图。


METAR-TAF: